^^
Station Historical Data
Daily Summary for January 11, 2018 Units:  Metric    English   Both
« Previous Day
Next Day »
Daily Weekly Monthly Yearly Custom
  High: Low: Average:
Temperature: -17.8 °C -22.3 °C -20.3 °C
Dew Point: -17.8 °C -22.9 °C -20.8 °C
Humidity: Humidity% 92% 93%
Wind Speed: 0km/h 0km/h 0.6km/h
Wind Gust: 0km/h - -
Wind- - East
Pressure: 0 hPa 34693 hPa -
Precipitation: 0 mm    
Historical Graphs
 
 
Tabular Data for January 11, 2018
Time Temperature Dew Point Pressure Wind Wind Speed Wind Gust Humidity Rainfall Rate (Hourly) solar Conditions
-17.8 °C -17.8 °C 0 hPa Calm     Humidity% 0 mm SoftwareType W/m2 Conditions
02:20 -21.4 °C -21.9 °C 34703.1 hPa Calm     93% 0 mm WeatherDisplay:10.37 W/m2 FEW
02:25 -21.4 °C -21.9 °C 34703.1 hPa Calm     93% 0 mm WeatherDisplay:10.37 W/m2 FEW
02:30 -21.4 °C -22 °C 34703.1 hPa Calm     93% 0 mm WeatherDisplay:10.37 W/m2 FEW
02:36 -21.5 °C -22 °C 34703.1 hPa Calm     93% 0 mm WeatherDisplay:10.37 W/m2 FEW
02:41 -21.5 °C -22 °C 34703.1 hPa Calm     93% 0 mm WeatherDisplay:10.37 W/m2 FEW
02:46 -21.5 °C -22 °C 34703.1 hPa Calm     93% 0 mm WeatherDisplay:10.37 W/m2 FEW
02:56 -21.5 °C -22.1 °C 34703.1 hPa NNW 1 km/h 6 km/h 93% 0 mm WeatherDisplay:10.37 W/m2 FEW
03:01 -21.5 °C -22 °C 34703.1 hPa Calm     93% 0 mm WeatherDisplay:10.37 W/m2 FEW
03:06 -21.5 °C -22 °C 34693 hPa Calm     93% 0 mm WeatherDisplay:10.37 W/m2 FEW
03:09 -21.5 °C -22 °C 34693 hPa Calm     93% 0 mm WeatherDisplay:10.37 W/m2 FEW
03:10 -21.5 °C -22 °C 34693 hPa Calm     93% 0 mm WeatherDisplay:10.37 W/m2 FEW
03:20 -21.4 °C -22 °C 34693 hPa Calm     93% 0 mm WeatherDisplay:10.37 W/m2 FEW
03:21 -21.4 °C -22 °C 34693 hPa Calm     93% 0 mm WeatherDisplay:10.37 W/m2 FEW
03:26 -21.4 °C -22 °C 34693 hPa Calm     93% 0 mm WeatherDisplay:10.37 W/m2 FEW
03:36 -21.5 °C -22 °C 34703.1 hPa Calm     93% 0 mm WeatherDisplay:10.37 W/m2 FEW
03:41 -21.5 °C -22.1 °C 34703.1 hPa Calm     93% 0 mm WeatherDisplay:10.37 W/m2 FEW
03:42 -21.5 °C -22.1 °C 34703.1 hPa Calm     93% 0 mm WeatherDisplay:10.37 W/m2 FEW
03:44 -21.5 °C -22.1 °C 34703.1 hPa Calm     93% 0 mm WeatherDisplay:10.37 W/m2 FEW
03:49 -21.6 °C -22.1 °C 34703.1 hPa Calm     93% 0 mm WeatherDisplay:10.37 W/m2 FEW
03:55 -21.6 °C -22.1 °C 34703.1 hPa Calm     93% 0 mm WeatherDisplay:10.37 W/m2 FEW
04:02 -21.6 °C -22.1 °C 34703.1 hPa Calm     93% 0 mm WeatherDisplay:10.37 W/m2 FEW
04:07 -21.6 °C -22.1 °C 34703.1 hPa Calm     93% 0 mm WeatherDisplay:10.37 W/m2 FEW
04:12 -21.6 °C -22.1 °C 34703.1 hPa Calm     93% 0 mm WeatherDisplay:10.37 W/m2 FEW
04:17 -21.6 °C -22.1 °C 34703.1 hPa Calm     93% 0 mm WeatherDisplay:10.37 W/m2 FEW
04:25 -21.6 °C -22.1 °C 34703.1 hPa Calm     93% 0 mm WeatherDisplay:10.37 W/m2 FEW
04:39 -21.7 °C -22.2 °C 34703.1 hPa Calm     93% 0 mm WeatherDisplay:10.37 W/m2 FEW
04:44 -21.7 °C -22.2 °C 34703.1 hPa Calm     93% 0 mm WeatherDisplay:10.37 W/m2 FEW
05:00 -21.8 °C -22.3 °C 34703.1 hPa Calm     93% 0 mm WeatherDisplay:10.37 W/m2 FEW
05:05 -21.8 °C -22.3 °C 34703.1 hPa Calm     93% 0 mm WeatherDisplay:10.37 W/m2 FEW
05:14 -21.8 °C -22.4 °C 34703.1 hPa Calm     93% 0 mm WeatherDisplay:10.37 W/m2 FEW
05:24 -21.9 °C -22.4 °C 34716.7 hPa Calm     93% 0 mm WeatherDisplay:10.37 W/m2 FEW
05:34 -22.1 °C -22.6 °C 34716.7 hPa Calm     93% 0 mm WeatherDisplay:10.37 W/m2 FEW
05:42 -22.1 °C -22.7 °C 34716.7 hPa Calm     92% 0 mm WeatherDisplay:10.37 W/m2 FEW
05:47 -22.1 °C -22.7 °C 34716.7 hPa Calm     92% 0 mm WeatherDisplay:10.37 W/m2 FEW
05:52 -22.1 °C -22.7 °C 34716.7 hPa Calm     92% 0 mm WeatherDisplay:10.37 W/m2 FEW
05:58 -22.2 °C -22.8 °C 34716.7 hPa Calm     92% 0 mm WeatherDisplay:10.37 W/m2 FEW
06:00 -22.2 °C -22.7 °C 34726.8 hPa Calm     93% 0 mm WeatherDisplay:10.37 W/m2 FEW
06:06 -22.2 °C -22.7 °C 34726.8 hPa Calm     93% 0 mm WeatherDisplay:10.37 W/m2 FEW
06:11 -22.3 °C -22.8 °C 34726.8 hPa Calm     92% 0 mm WeatherDisplay:10.37 W/m2 FEW
06:16 -22.3 °C -22.9 °C 34726.8 hPa Calm     92% 0 mm WeatherDisplay:10.37 W/m2 FEW
06:21 -22.3 °C -22.9 °C 34726.8 hPa Calm     92% 0 mm WeatherDisplay:10.37 W/m2 FEW
06:26 -22.3 °C -22.8 °C 34726.8 hPa Calm     93% 0 mm WeatherDisplay:10.37 W/m2 FEW
06:31 -22.3 °C -22.8 °C 34726.8 hPa Calm     93% 0 mm WeatherDisplay:10.37 W/m2 FEW
06:36 -22.3 °C -22.8 °C 34726.8 hPa Calm     92% 0 mm WeatherDisplay:10.37 W/m2 FEW
06:45 -22.2 °C -22.7 °C 34726.8 hPa Calm     93% 0 mm WeatherDisplay:10.37 W/m2 FEW
06:50 -22.2 °C -22.7 °C 34726.8 hPa Calm     93% 0 mm WeatherDisplay:10.37 W/m2 FEW
06:55 -22.1 °C -22.6 °C 34740.4 hPa Calm     93% 0 mm WeatherDisplay:10.37 W/m2 FEW
07:04 -21.9 °C -22.4 °C 34740.4 hPa Calm     93% 0 mm WeatherDisplay:10.37 W/m2 FEW
07:09 -21.8 °C -22.4 °C 34740.4 hPa Calm     93% 0 mm WeatherDisplay:10.37 W/m2 FEW
07:14 -21.8 °C -22.3 °C 34740.4 hPa Calm     93% 0 mm WeatherDisplay:10.37 W/m2 FEW
07:19 -21.7 °C -22.3 °C 34740.4 hPa Calm     93% 0 mm WeatherDisplay:10.37 W/m2 FEW
07:24 -21.7 °C -22.2 °C 34740.4 hPa Calm     93% 0 mm WeatherDisplay:10.37 W/m2 FEW
07:29 -21.6 °C -22.2 °C 34750.5 hPa Calm     93% 0 mm WeatherDisplay:10.37 W/m2 FEW
07:34 -21.6 °C -22.1 °C 34750.5 hPa Calm     93% 0 mm WeatherDisplay:10.37 W/m2 FEW
07:39 -21.6 °C -22.1 °C 34750.5 hPa Calm   6 km/h 93% 0 mm WeatherDisplay:10.37 W/m2 FEW
07:44 -21.5 °C -22.1 °C 34750.5 hPa Calm     93% 0 mm WeatherDisplay:10.37 W/m2 FEW
07:54 -21.5 °C -22 °C 34750.5 hPa Calm     93% 0 mm WeatherDisplay:10.37 W/m2 FEW
07:59 -21.5 °C -22 °C 34760.7 hPa Calm     93% 0 mm WeatherDisplay:10.37 W/m2 FEW
08:10 -21.5 °C -22.1 °C 34760.7 hPa Calm     93% 0 mm WeatherDisplay:10.37 W/m2 FEW
08:16 -21.5 °C -22 °C 34760.7 hPa ENE 5.1 km/h 9 km/h 93% 0 mm WeatherDisplay:10.37 W/m2 FEW
08:26 -21.4 °C -21.9 °C 34774.2 hPa Calm     93% 0 mm WeatherDisplay:10.37 W/m2 FEW
08:31 -21.3 °C -21.9 °C 34774.2 hPa Calm     93% 0 mm WeatherDisplay:10.37 W/m2 FEW
08:36 -21.3 °C -21.8 °C 34774.2 hPa Calm   5.1 km/h 93% 0 mm WeatherDisplay:10.37 W/m2 FEW
08:41 -21.3 °C -21.8 °C 34774.2 hPa ENE 7.2 km/h 11.9 km/h 93% 0 mm WeatherDisplay:10.37 W/m2 FEW
08:48 -21.2 °C -21.7 °C 34774.2 hPa ESE 1.8 km/h 9 km/h 93% 0 mm WeatherDisplay:10.37 W/m2 FEW
08:56 -21.1 °C -21.6 °C 34784.4 hPa Calm     94% 0 mm WeatherDisplay:10.37 W/m2 FEW
09:03 -21.1 °C -21.5 °C 34784.4 hPa ENE 2.6 km/h 7.7 km/h 94% 0 mm WeatherDisplay:10.37 W/m2 FEW
09:18 -21 °C -21.5 °C 34797.9 hPa Calm   6 km/h 93% 0 mm WeatherDisplay:10.37 W/m2 FEW
09:27 -20.9 °C -21.5 °C 34797.9 hPa Calm     93% 0 mm WeatherDisplay:10.37 W/m2 FEW
09:32 -20.9 °C -21.4 °C 34797.9 hPa ENE 6.3 km/h 9 km/h 94% 0 mm WeatherDisplay:10.37 W/m2 FEW
09:37 -20.9 °C -21.3 °C 34797.9 hPa Calm     94% 0 mm WeatherDisplay:10.37 W/m2 FEW
09:43 -20.9 °C -21.3 °C 34797.9 hPa Calm     94% 0 mm WeatherDisplay:10.37 W/m2 FEW
09:50 -20.8 °C -21.3 °C 34797.9 hPa Calm     94% 0 mm WeatherDisplay:10.37 W/m2 FEW
09:55 -20.8 °C -21.3 °C 34797.9 hPa Calm   9 km/h 94% 0 mm WeatherDisplay:10.37 W/m2 FEW
10:00 -20.8 °C -21.3 °C 34808.1 hPa Calm     94% 0 mm WeatherDisplay:10.37 W/m2 FEW
10:05 -20.7 °C -21.3 °C 34808.1 hPa Calm     93% 0 mm WeatherDisplay:10.37 W/m2 FEW
10:10 -20.7 °C -21.2 °C 34808.1 hPa Calm     94% 0 mm WeatherDisplay:10.37 W/m2 FEW
10:19 -20.7 °C -21.1 °C 34808.1 hPa Calm     94% 0 mm WeatherDisplay:10.37 W/m2 FEW
10:24 -20.6 °C -21.1 °C 34818.2 hPa ENE 3.1 km/h 6 km/h 94% 0 mm WeatherDisplay:10.37 W/m2 FEW
10:43 -20.5 °C -21 °C 34818.2 hPa ENE 2.9 km/h 5.1 km/h 94% 0 mm WeatherDisplay:10.37 W/m2 FEW
10:53 -20.5 °C -20.9 °C 34831.8 hPa Calm     94% 0 mm WeatherDisplay:10.37 W/m2 FEW
11:01 -20.4 °C -20.9 °C 34831.8 hPa Calm   9 km/h 94% 0 mm WeatherDisplay:10.37 W/m2 FEW
11:06 -20.4 °C -20.9 °C 34841.9 hPa ENE 2.1 km/h 11.9 km/h 94% 0 mm WeatherDisplay:10.37 W/m2 FEW
11:11 -20.4 °C -20.9 °C 34841.9 hPa ENE 1.8 km/h 9 km/h 94% 0 mm WeatherDisplay:10.37 W/m2 FEW
11:19 -20.4 °C -20.9 °C 34841.9 hPa ENE 6.3 km/h 9 km/h 94% 0 mm WeatherDisplay:10.37 W/m2 FEW
11:30 -20.4 °C -20.8 °C 34841.9 hPa ENE 3.7 km/h 9 km/h 94% 0 mm WeatherDisplay:10.37 W/m2 FEW
11:35 -20.3 °C -20.8 °C 34841.9 hPa ENE 4.7 km/h 11.9 km/h 94% 0 mm WeatherDisplay:10.37 W/m2 FEW
11:40 -20.3 °C -20.8 °C 34841.9 hPa ENE 5.1 km/h 11.9 km/h 94% 0 mm WeatherDisplay:10.37 W/m2 FEW
11:49 -20.3 °C -20.7 °C 34841.9 hPa ESE 1.3 km/h 15 km/h 94% 0 mm WeatherDisplay:10.37 W/m2 FEW
11:54 -20.3 °C -20.7 °C 34841.9 hPa East 2.6 km/h 9 km/h 94% 0 mm WeatherDisplay:10.37 W/m2 FEW
11:59 -20.2 °C -20.7 °C 34841.9 hPa Calm     94% 0 mm WeatherDisplay:10.37 W/m2 FEW
12:04 -20.2 °C -20.7 °C 34841.9 hPa Calm     94% 0 mm WeatherDisplay:10.37 W/m2 FEW
12:09 -20.2 °C -20.7 °C 34841.9 hPa Calm   2.6 km/h 94% 0 mm WeatherDisplay:10.37 W/m2 FEW
12:14 -20.2 °C -20.6 °C 34852.1 hPa Calm     94% 0 mm WeatherDisplay:10.37 W/m2 FEW
12:19 -20.2 °C -20.6 °C 34841.9 hPa East 0.3 km/h 6 km/h 94% 0 mm WeatherDisplay:10.37 W/m2 FEW
12:36 -20.1 °C -20.5 °C 34841.9 hPa East 0.8 km/h 9 km/h 94% 0 mm WeatherDisplay:10.37 W/m2 FEW
12:45 -20 °C -20.4 °C 34852.1 hPa East 5 km/h 9 km/h 94% 0 mm WeatherDisplay:10.37 W/m2 FEW
13:01 -19.9 °C -20.4 °C 34852.1 hPa Calm     94% 0 mm WeatherDisplay:10.37 W/m2 FEW
13:06 -19.9 °C -20.3 °C 34852.1 hPa Calm     94% 0 mm WeatherDisplay:10.37 W/m2 FEW
13:16 -19.8 °C -20.3 °C 34852.1 hPa Calm     94% 0 mm WeatherDisplay:10.37 W/m2 FEW
13:21 -19.8 °C -20.3 °C 34852.1 hPa Calm     94% 0 mm WeatherDisplay:10.37 W/m2 FEW
13:26 -19.8 °C -20.3 °C 34852.1 hPa East 0.3 km/h 5.1 km/h 94% 0 mm WeatherDisplay:10.37 W/m2 FEW
13:33 -19.8 °C -20.2 °C 34865.6 hPa Calm     94% 0 mm WeatherDisplay:10.37 W/m2 FEW
13:54 -19.7 °C -20.2 °C 34865.6 hPa Calm     94% 0 mm WeatherDisplay:10.37 W/m2 FEW
14:00 -19.7 °C -20.1 °C 34865.6 hPa Calm   3.1 km/h 94% 0 mm WeatherDisplay:10.37 W/m2 FEW
14:10 -19.6 °C -20.1 °C 34865.6 hPa East 1.6 km/h   94% 0 mm WeatherDisplay:10.37 W/m2 FEW
14:16 -19.6 °C -20.1 °C 34865.6 hPa East 3.9 km/h 6 km/h 94% 0 mm WeatherDisplay:10.37 W/m2 FEW
14:21 -19.6 °C -20.1 °C 34865.6 hPa East 3.1 km/h 3.1 km/h 94% 0 mm WeatherDisplay:10.37 W/m2 FEW
14:26 -19.6 °C -20.1 °C 34865.6 hPa Calm     94% 0 mm WeatherDisplay:10.37 W/m2 FEW
14:32 -19.6 °C -20 °C 34865.6 hPa Calm     94% 0 mm WeatherDisplay:10.37 W/m2 FEW
14:37 -19.6 °C -20 °C 34875.8 hPa ENE 3.7 km/h 9 km/h 94% 0 mm WeatherDisplay:10.37 W/m2 FEW
14:42 -19.5 °C -19.9 °C 34875.8 hPa Calm     94% 0 mm WeatherDisplay:10.37 W/m2 FEW
14:47 -19.5 °C -19.9 °C 34875.8 hPa Calm     94% 0 mm WeatherDisplay:10.37 W/m2 FEW
14:52 -19.5 °C -19.9 °C 34875.8 hPa ENE 1.8 km/h 9 km/h 94% 0 mm WeatherDisplay:10.37 W/m2 FEW
14:57 -19.5 °C -19.9 °C 34875.8 hPa Calm     94% 0 mm WeatherDisplay:10.37 W/m2 FEW
15:02 -19.5 °C -19.9 °C 34875.8 hPa ENE 0.5 km/h 6 km/h 94% 0 mm WeatherDisplay:10.37 W/m2 FEW
15:07 -19.4 °C -19.9 °C 34875.8 hPa Calm     94% 0 mm WeatherDisplay:10.37 W/m2 FEW
15:12 -19.4 °C -19.9 °C 34875.8 hPa Calm     94% 0 mm WeatherDisplay:10.37 W/m2 FEW
15:17 -19.4 °C -19.9 °C 34889.3 hPa Calm     94% 0 mm WeatherDisplay:10.37 W/m2 FEW
15:22 -19.4 °C -19.9 °C 34889.3 hPa Calm     94% 0 mm WeatherDisplay:10.37 W/m2 FEW
15:27 -19.4 °C -19.9 °C 34889.3 hPa ENE 0.8 km/h 6 km/h 94% 0 mm WeatherDisplay:10.37 W/m2 FEW
15:32 -19.4 °C -19.9 °C 34889.3 hPa ENE 2.6 km/h 6 km/h 94% 0 mm WeatherDisplay:10.37 W/m2 FEW
15:37 -19.4 °C -19.8 °C 34889.3 hPa ENE 1.6 km/h 6 km/h 94% 0 mm WeatherDisplay:10.37 W/m2 FEW
15:42 -19.4 °C -19.8 °C 34889.3 hPa Calm     94% 0 mm WeatherDisplay:10.37 W/m2 FEW
15:47 -19.3 °C -19.8 °C 34889.3 hPa Calm     94% 0 mm WeatherDisplay:10.37 W/m2 FEW
15:52 -19.3 °C -19.8 °C 34889.3 hPa Calm     94% 0 mm WeatherDisplay:10.37 W/m2 FEW
15:57 -19.3 °C -19.8 °C 34889.3 hPa ENE 3.1 km/h 6 km/h 94% 0 mm WeatherDisplay:10.37 W/m2 FEW
16:06 -19.3 °C -19.8 °C 34899.5 hPa Calm     94% 0 mm WeatherDisplay:10.37 W/m2 FEW
16:11 -19.3 °C -19.8 °C 34899.5 hPa Calm     94% 0 mm WeatherDisplay:10.37 W/m2 FEW
16:16 -19.3 °C -19.8 °C 34899.5 hPa Calm     94% 0 mm WeatherDisplay:10.37 W/m2 FEW
16:21 -19.3 °C -19.8 °C 34899.5 hPa Calm     94% 0 mm WeatherDisplay:10.37 W/m2 FEW
16:26 -19.3 °C -19.8 °C 34909.7 hPa Calm     94% 0 mm WeatherDisplay:10.37 W/m2 FEW
16:31 -19.3 °C -19.8 °C 34909.7 hPa ENE 0.5 km/h 3.1 km/h 94% 0 mm WeatherDisplay:10.37 W/m2 FEW
16:38 -19.3 °C -19.8 °C 34909.7 hPa Calm     94% 0 mm WeatherDisplay:10.37 W/m2 FEW
16:43 -19.3 °C -19.8 °C 34909.7 hPa ENE 0.3 km/h   94% 0 mm WeatherDisplay:10.37 W/m2 FEW
16:58 -19.3 °C -19.8 °C 34909.7 hPa Calm     94% 0 mm WeatherDisplay:10.37 W/m2 FEW
17:06 -19.3 °C -19.7 °C 34923.2 hPa ENE 0.3 km/h 3.1 km/h 94% 0 mm WeatherDisplay:10.37 W/m2 FEW
17:11 -19.3 °C -19.7 °C 34923.2 hPa Calm     94% 0 mm WeatherDisplay:10.37 W/m2 FEW
17:16 -19.3 °C -19.7 °C 34923.2 hPa Calm     94% 0 mm WeatherDisplay:10.37 W/m2 FEW
17:21 -19.2 °C -19.7 °C 34923.2 hPa Calm     94% 0 mm WeatherDisplay:10.37 W/m2 FEW
17:31 -19.2 °C -19.7 °C 34933.4 hPa Calm   3.1 km/h 94% 0 mm WeatherDisplay:10.37 W/m2 FEW
17:53 -19.2 °C -19.7 °C 34933.4 hPa Calm   6 km/h 94% 0 mm WeatherDisplay:10.37 W/m2 FEW
17:58 -19.2 °C -19.7 °C 34933.4 hPa ENE 0.8 km/h 9 km/h 94% 0 mm WeatherDisplay:10.37 W/m2 FEW
18:03 -19.2 °C -19.7 °C 34933.4 hPa Calm     94% 0 mm WeatherDisplay:10.37 W/m2 FEW
18:08 -19.2 °C -19.7 °C 34933.4 hPa ENE 0.8 km/h 6 km/h 94% 0 mm WeatherDisplay:10.37 W/m2 FEW
18:13 -19.2 °C -19.7 °C 34933.4 hPa Calm     94% 0 mm WeatherDisplay:10.37 W/m2 FEW
18:34 -19.2 °C -19.7 °C 34946.9 hPa Calm     94% 0 mm WeatherDisplay:10.37 W/m2 FEW
18:39 -19.2 °C -19.7 °C 34946.9 hPa ENE 1.6 km/h 9 km/h 94% 0 mm WeatherDisplay:10.37 W/m2 FEW
18:44 -19.2 °C -19.7 °C 34957.1 hPa ENE 5 km/h 9 km/h 94% 0 mm WeatherDisplay:10.37 W/m2 FEW
18:49 -19.2 °C -19.7 °C 34957.1 hPa ENE 1 km/h 6 km/h 94% 0 mm WeatherDisplay:10.37 W/m2 FEW
18:54 -19.2 °C -19.7 °C 34957.1 hPa Calm     94% 0 mm WeatherDisplay:10.37 W/m2 FEW
18:59 -19.2 °C -19.7 °C 34957.1 hPa ENE 2.6 km/h   94% 0 mm WeatherDisplay:10.37 W/m2 FEW
19:04 -19.2 °C -19.7 °C 34957.1 hPa ENE 0.5 km/h 6 km/h 94% 0 mm WeatherDisplay:10.37 W/m2 FEW
19:18 -19.2 °C -19.7 °C 34957.1 hPa Calm     94% 0 mm WeatherDisplay:10.37 W/m2 FEW
19:23 -19.2 °C -19.7 °C 34967.2 hPa ENE 1.6 km/h 6 km/h 93% 0 mm WeatherDisplay:10.37 W/m2 FEW
19:31 -19.2 °C -19.8 °C 34967.2 hPa Calm     93% 0 mm WeatherDisplay:10.37 W/m2 FEW
19:36 -19.2 °C -19.8 °C 34967.2 hPa Calm     93% 0 mm WeatherDisplay:10.37 W/m2 FEW
19:46 -19.2 °C -19.8 °C 34967.2 hPa Calm     93% 0 mm WeatherDisplay:10.37 W/m2 FEW
19:51 -19.2 °C -19.8 °C 34967.2 hPa Calm     93% 0 mm WeatherDisplay:10.37 W/m2 FEW
19:56 -19.2 °C -19.8 °C 34980.8 hPa Calm     93% 0 mm WeatherDisplay:10.37 W/m2 FEW
20:01 -19.2 °C -19.8 °C 34980.8 hPa Calm     93% 0 mm WeatherDisplay:10.37 W/m2 FEW
20:06 -19.2 °C -19.8 °C 34980.8 hPa ENE 2.1 km/h 5.1 km/h 93% 0 mm WeatherDisplay:10.37 W/m2 FEW
20:11 -19.2 °C -19.8 °C 34980.8 hPa Calm     93% 0 mm WeatherDisplay:10.37 W/m2 FEW
20:16 -19.2 °C -19.8 °C 34980.8 hPa Calm     93% 0 mm WeatherDisplay:10.37 W/m2 FEW
20:21 -19.2 °C -19.8 °C 34980.8 hPa Calm   9 km/h 93% 0 mm WeatherDisplay:10.37 W/m2 FEW
20:26 -19.2 °C -19.7 °C 34980.8 hPa Calm     93% 0 mm WeatherDisplay:10.37 W/m2 FEW
20:31 -19.2 °C -19.7 °C 34980.8 hPa ENE 4.2 km/h 9 km/h 93% 0 mm WeatherDisplay:10.37 W/m2 FEW
20:36 -19.2 °C -19.7 °C 34990.9 hPa Calm     93% 0 mm WeatherDisplay:10.37 W/m2 FEW
20:47 -19.2 °C -19.7 °C 34990.9 hPa Calm     93% 0 mm WeatherDisplay:10.37 W/m2 FEW
20:56 -19.2 °C -19.7 °C 34990.9 hPa ENE 1 km/h 9 km/h 93% 0 mm WeatherDisplay:10.37 W/m2 FEW
21:01 -19.2 °C -19.7 °C 34990.9 hPa Calm     93% 0 mm WeatherDisplay:10.37 W/m2 FEW
21:06 -19.2 °C -19.7 °C 34990.9 hPa Calm     93% 0 mm WeatherDisplay:10.37 W/m2 FEW
21:15 -19.2 °C -19.7 °C 34990.9 hPa ENE 1.3 km/h 6 km/h 93% 0 mm WeatherDisplay:10.37 W/m2 FEW
21:23 -19.2 °C -19.7 °C 34990.9 hPa Calm   6 km/h 93% 0 mm WeatherDisplay:10.37 W/m2 FEW
21:28 -19.2 °C -19.7 °C 34990.9 hPa Calm     93% 0 mm WeatherDisplay:10.37 W/m2 FEW
21:36 -19.2 °C -19.7 °C 34990.9 hPa Calm   6 km/h 93% 0 mm WeatherDisplay:10.37 W/m2 FEW
21:41 -19.2 °C -19.7 °C 35001.1 hPa Calm     93% 0 mm WeatherDisplay:10.37 W/m2 FEW
21:48 -19.2 °C -19.7 °C 35001.1 hPa Calm     93% 0 mm WeatherDisplay:10.37 W/m2 FEW
21:57 -19.2 °C -19.7 °C 35001.1 hPa Calm     93% 0 mm WeatherDisplay:10.37 W/m2 FEW
22:02 -19.2 °C -19.7 °C 35014.6 hPa ENE 4.2 km/h 6 km/h 93% 0 mm WeatherDisplay:10.37 W/m2 FEW
22:07 -19.2 °C -19.7 °C 35014.6 hPa Calm   11.9 km/h 93% 0 mm WeatherDisplay:10.37 W/m2 FEW
22:12 -19.2 °C -19.7 °C 35014.6 hPa Calm     93% 0 mm WeatherDisplay:10.37 W/m2 FEW
22:17 -19.2 °C -19.7 °C 35014.6 hPa Calm     93% 0 mm WeatherDisplay:10.37 W/m2 FEW
22:22 -19.2 °C -19.7 °C 35014.6 hPa Calm     93% 0 mm WeatherDisplay:10.37 W/m2 FEW
22:28 -19.2 °C -19.7 °C 35014.6 hPa Calm     93% 0 mm WeatherDisplay:10.37 W/m2 FEW
22:35 -19.2 °C -19.7 °C 35024.8 hPa Calm     93% 0 mm WeatherDisplay:10.37 W/m2 FEW
22:40 -19.2 °C -19.7 °C 35024.8 hPa Calm     93% 0 mm WeatherDisplay:10.37 W/m2 FEW
22:45 -19.2 °C -19.7 °C 35024.8 hPa ENE 1 km/h 6 km/h 93% 0 mm WeatherDisplay:10.37 W/m2 FEW
22:51 -19.2 °C -19.7 °C 35024.8 hPa Calm     93% 0 mm WeatherDisplay:10.37 W/m2 FEW
22:56 -19.2 °C -19.7 °C 35024.8 hPa Calm     93% 0 mm WeatherDisplay:10.37 W/m2 FEW
23:01 -19.2 °C -19.7 °C 35024.8 hPa Calm     93% 0 mm WeatherDisplay:10.37 W/m2 FEW
23:06 -19.2 °C -19.7 °C 35024.8 hPa Calm     93% 0 mm WeatherDisplay:10.37 W/m2 FEW
23:11 -19.2 °C -19.7 °C 35024.8 hPa Calm     93% 0 mm WeatherDisplay:10.37 W/m2 FEW
23:16 -19.2 °C -19.7 °C 35024.8 hPa Calm     93% 0 mm WeatherDisplay:10.37 W/m2 FEW
23:21 -19.2 °C -19.7 °C 35038.3 hPa Calm     93% 0 mm WeatherDisplay:10.37 W/m2 FEW
23:28 -19.2 °C -19.7 °C 35038.3 hPa Calm     93% 0 mm WeatherDisplay:10.37 W/m2 FEW
23:33 -19.2 °C -19.7 °C 35038.3 hPa Calm     93% 0 mm WeatherDisplay:10.37 W/m2 FEW
23:43 -19.2 °C -19.7 °C 35038.3 hPa Calm     93% 0 mm WeatherDisplay:10.37 W/m2 FEW
23:48 -19.1 °C -19.7 °C 35048.5 hPa Calm     93% 0 mm WeatherDisplay:10.37 W/m2 FEW
23:57 -19.1 °C -19.7 °C 35048.5 hPa ENE 1.6 km/h 9 km/h 93% 0 mm WeatherDisplay:10.37 W/m2 FEW
Tuulensuunkaari, Veikkola, Suomi
Compliments of Weather Underground - 2.25 mb